• Join FlightAware (Why Join?)
  • Login
  • US Flag 
04:21AM EDT


 

Airport Tracker/Info


-or-


 

Live Flight TrackerFlight Track Log ✈ UAL4849 ✈ 01-May-2013 ✈ KROC - KEWR

Flight Track Log - Related Links

Times and Time Zones

All times are in EDT time to prevent confusion due to time zone crossing. See the UAL4849 flight status page for this flight to view local times or setup timezone preferences in your user account.

Time Position Orientation Groundspeed Altitude Reporting Facility
EDT Latitude Longitude Course Direction KTS MPH feet Rate Location/Type
06:18AM 43.1014 -77.6942 170° South 114 131 1,300  Level Cleveland Center
06:19AM 43.0722 -77.6869 170° South 139 160 2,300 1,200 Climbing Cleveland Center
06:20AM 43.0519 -77.6283 115° Southeast 164 189 3,600 1,140 Climbing Cleveland Center
06:20AM 43.0428 -77.5947 110° East 166 191 4,300 1,260 Climbing Cleveland Center
06:21AM 43.0203 -77.5361 118° Southeast 173 199 5,700 1,500 Climbing Cleveland Center
06:22AM 42.9978 -77.4747 117° Southeast 173 199 7,400 1,500 Climbing Cleveland Center
06:23AM 42.9753 -77.4106 116° Southeast 173 199 8,800 1,260 Climbing Cleveland Center
06:24AM 42.9486 -77.3494 121° Southeast 173 199 10,000 1,140 Climbing Cleveland Center
06:25AM 42.9258 -77.2797 114° Southeast 186 214 11,100 1,080 Climbing Cleveland Center
06:26AM 42.9008 -77.2075 115° Southeast 198 228 12,200 900 Climbing Cleveland Center
06:27AM 42.8736 -77.1325 116° Southeast 204 235 13,000 780 Climbing Cleveland Center
06:29AM 42.8278 -77.0028 116° Southeast 228 262 14,300 780 Climbing New York Center
06:30AM 42.7894 -76.9194 122° Southeast 229 264 15,100 300 Climbing Boston Center
06:31AM 42.7550 -76.8406 121° Southeast 234 269 15,000 -60 Descending Boston Center
06:32AM 42.7167 -76.7531 121° Southeast 249 287 15,000  Level Boston Center
06:33AM 42.6781 -76.6686 122° Southeast 261 300 15,000 -240 Level Boston Center
06:34AM 42.6436 -76.5900 121° Southeast 261 300 14,600 -600 Descending Boston Center
06:35AM 42.6011 -76.4939 121° Southeast 273 314 13,800 -840 Descending Boston Center
06:36AM 42.5603 -76.4094 123° Southeast 278 320 13,000 -840 Descending Boston Center
06:37AM 42.5236 -76.3253 121° Southeast 267 307 12,200 -840 Descending Boston Center
06:38AM 42.4886 -76.2472 121° Southeast 257 296 11,400 -600 Descending Boston Center
06:39AM 42.4558 -76.1692 120° Southeast 247 284 11,000 -240 Descending Boston Center
06:40AM 42.4228 -76.0969 122° Southeast 237 273 11,000  Level Boston Center
06:41AM 42.3856 -76.0186 123° Southeast 242 278 11,000  Level Boston Center
06:42AM 42.3506 -75.9381 120° Southeast 243 280 11,000  Level Boston Center
06:43AM 42.3156 -75.8603 121° Southeast 249 287 11,000  Level Boston Center
06:44AM 42.2725 -75.7681 122° Southeast 249 287 11,000  Level Boston Center
06:45AM 42.2353 -75.6847 121° Southeast 254 292 11,000  Level Boston Center
06:46AM 42.1958 -75.6014 123° Southeast 260 299 11,000  Level Boston Center
06:47AM 42.1586 -75.5156 120° Southeast 260 299 11,000  Level Boston Center
06:48AM 42.1192 -75.4322 123° Southeast 260 299 11,000  Level Boston Center
06:49AM 42.0717 -75.3322 123° Southeast 260 299 11,000  Level Boston Center
06:51AM 42.0383 -75.2467 118° Southeast 260 299 11,000  Level Boston Center
06:52AM 41.9992 -75.1417 117° Southeast 260 299 11,100  Climbing Boston Center
06:53AM 41.9639 -75.0536 118° Southeast 260 299 11,100  Level Boston Center
06:54AM 41.9303 -74.9656 117° Southeast 266 306 11,100 -300 Level Boston Center
06:55AM 41.8931 -74.8664 117° Southeast 271 312 10,500 -900 Descending Boston Center
06:56AM 41.8556 -74.7647 116° Southeast 277 319 9,400 -1,020 Descending Boston Center
06:57AM 41.8217 -74.6828 119° Southeast 277 319 8,500 -660 Descending Boston Center
06:58AM 41.7861 -74.5867 116° Southeast 269 310 8,100 -240 Descending Boston Center
06:59AM 41.7411 -74.5350 139° Southeast 255 293 8,100  Level Boston Center
07:00AM 41.6597 -74.5464 186° South 229 264 8,100  Level Boston Center
07:01AM 41.5947 -74.5581 188° South 250 288 8,100 -540 Level Boston Center
07:02AM 41.5111 -74.5747 188° South 273 314 7,100 -900 Descending Boston Center
07:03AM 41.4464 -74.5864 188° South 278 320 6,300 -540 Descending Boston Center
07:04AM 41.3667 -74.6114 193° South 273 314 6,100 -120 Descending Boston Center
07:05AM 41.3000 -74.6167 183° South 251 289 6,100  Level New York TRACON
07:06AM 41.3000 -74.5333 90° East 251 289 6,100 -60 Level New York TRACON
07:07AM 41.2667 -74.4500 118° Southeast 238 274 6,000 -60 Descending New York TRACON
07:08AM 41.2167 -74.4000 143° Southeast 241 277 6,000  Level New York TRACON
07:09AM 41.1667 -74.3833 166° South 258 297 6,000  Level New York TRACON
07:10AM 41.1000 -74.4333 209° Southwest 262 302 6,000  Level New York TRACON
07:11AM 41.0500 -74.4833 217° Southwest 258 297 6,000  Level New York TRACON
07:12AM 40.9833 -74.5167 201° Southwest 257 296 6,000  Level New York TRACON
07:13AM 40.9167 -74.5667 210° Southwest 256 295 6,000  Level New York TRACON
07:13AM 40.8667 -74.5833 194° South 255 293 6,000  Level New York TRACON
07:15AM 40.7833 -74.5667 171° South 282 325 6,000  Level New York TRACON
07:16AM 40.7167 -74.5500 169° South 251 289 6,000  Level New York TRACON
07:17AM 40.6500 -74.5167 159° South 233 268 6,000  Level New York TRACON
07:17AM 40.6000 -74.5167 180° South 223 257 6,000  Level New York TRACON
07:18AM 40.5500 -74.5000 166° South 221 254 6,000  Level New York TRACON
07:19AM 40.4833 -74.4833 169° South 210 242 6,000 -360 Level New York TRACON
07:20AM 40.4333 -74.4667 166° South 212 244 5,300 -900 Descending New York TRACON
07:21AM 40.4000 -74.4167 131° Southeast 181 208 4,300 -1,020 Descending New York TRACON
07:22AM 40.4333 -74.3667 49° Northeast 188 216 3,400 -720 Descending New York TRACON
07:23AM 40.4667 -74.3333 37° Northeast 171 197 3,000 -240 Descending New York TRACON
07:24AM 40.5000 -74.2833 49° Northeast 169 194 3,000  Level New York TRACON
07:25AM 40.5333 -74.2667 21° North 158 182 3,000 -300 Level New York TRACON
07:26AM 40.5833 -74.2333 27° Northeast 157 181 2,400 -780 Descending New York TRACON
07:27AM 40.6167 -74.2167 21° North 158 182 1,500 -840 Descending New York TRACON
07:28AM 40.6500 -74.1833 37° Northeast 144 166 800 -720 Descending New York TRACON